sensor_id;sensor_type;location;lat;lon;timestamp;P1;durP1;ratioP1;P2;durP2;ratioP2
13891;SDS011;7016;48.172;8.058;2023-09-18T00:00:53;10.80;;;3.00;;
13891;SDS011;7016;48.172;8.058;2023-09-18T00:03:21;5.82;;;2.38;;
13891;SDS011;7016;48.172;8.058;2023-09-18T00:05:49;5.65;;;2.22;;
13891;SDS011;7016;48.172;8.058;2023-09-18T00:08:16;6.90;;;2.35;;
13891;SDS011;7016;48.172;8.058;2023-09-18T00:10:46;10.95;;;2.50;;
13891;SDS011;7016;48.172;8.058;2023-09-18T00:13:14;8.18;;;3.05;;
13891;SDS011;7016;48.172;8.058;2023-09-18T00:15:40;9.77;;;2.78;;
13891;SDS011;7016;48.172;8.058;2023-09-18T00:18:06;13.55;;;2.80;;
13891;SDS011;7016;48.172;8.058;2023-09-18T00:20:32;9.10;;;2.53;;
13891;SDS011;7016;48.172;8.058;2023-09-18T00:22:58;8.55;;;2.55;;
13891;SDS011;7016;48.172;8.058;2023-09-18T00:25:24;7.82;;;2.63;;
13891;SDS011;7016;48.172;8.058;2023-09-18T00:27:49;21.52;;;7.53;;
13891;SDS011;7016;48.172;8.058;2023-09-18T00:30:17;12.57;;;2.67;;
13891;SDS011;7016;48.172;8.058;2023-09-18T00:32:42;18.20;;;3.17;;
13891;SDS011;7016;48.172;8.058;2023-09-18T00:35:08;10.95;;;3.08;;
13891;SDS011;7016;48.172;8.058;2023-09-18T00:37:34;13.07;;;3.20;;
13891;SDS011;7016;48.172;8.058;2023-09-18T00:40:02;15.40;;;3.75;;
13891;SDS011;7016;48.172;8.058;2023-09-18T00:42:30;11.75;;;2.88;;
13891;SDS011;7016;48.172;8.058;2023-09-18T00:44:55;15.90;;;3.67;;
13891;SDS011;7016;48.172;8.058;2023-09-18T00:47:21;16.95;;;3.55;;
13891;SDS011;7016;48.172;8.058;2023-09-18T00:49:47;9.27;;;3.13;;
13891;SDS011;7016;48.172;8.058;2023-09-18T00:52:15;12.15;;;3.40;;
13891;SDS011;7016;48.172;8.058;2023-09-18T00:54:42;12.13;;;3.45;;
13891;SDS011;7016;48.172;8.058;2023-09-18T00:57:09;10.50;;;3.58;;
13891;SDS011;7016;48.172;8.058;2023-09-18T00:59:36;14.35;;;3.13;;
13891;SDS011;7016;48.172;8.058;2023-09-18T01:02:02;13.63;;;4.10;;
13891;SDS011;7016;48.172;8.058;2023-09-18T01:04:28;10.30;;;3.50;;
13891;SDS011;7016;48.172;8.058;2023-09-18T01:06:57;17.10;;;3.20;;
13891;SDS011;7016;48.172;8.058;2023-09-18T01:09:26;13.05;;;3.35;;
13891;SDS011;7016;48.172;8.058;2023-09-18T01:11:54;13.88;;;3.42;;
13891;SDS011;7016;48.172;8.058;2023-09-18T01:14:38;11.50;;;3.55;;
13891;SDS011;7016;48.172;8.058;2023-09-18T01:17:20;9.20;;;3.50;;
13891;SDS011;7016;48.172;8.058;2023-09-18T01:19:47;15.10;;;3.83;;
13891;SDS011;7016;48.172;8.058;2023-09-18T01:22:13;13.55;;;3.55;;
13891;SDS011;7016;48.172;8.058;2023-09-18T01:24:41;17.13;;;3.95;;
13891;SDS011;7016;48.172;8.058;2023-09-18T01:27:09;12.02;;;4.00;;
13891;SDS011;7016;48.172;8.058;2023-09-18T01:29:36;10.70;;;3.50;;
13891;SDS011;7016;48.172;8.058;2023-09-18T01:32:02;11.02;;;3.38;;
13891;SDS011;7016;48.172;8.058;2023-09-18T01:34:32;14.23;;;3.75;;
13891;SDS011;7016;48.172;8.058;2023-09-18T01:37:04;14.57;;;3.63;;
13891;SDS011;7016;48.172;8.058;2023-09-18T01:39:32;16.48;;;3.45;;
13891;SDS011;7016;48.172;8.058;2023-09-18T01:42:00;14.95;;;3.63;;
13891;SDS011;7016;48.172;8.058;2023-09-18T01:44:27;16.02;;;3.92;;
13891;SDS011;7016;48.172;8.058;2023-09-18T01:46:54;15.13;;;3.95;;
13891;SDS011;7016;48.172;8.058;2023-09-18T01:49:31;14.98;;;4.22;;
13891;SDS011;7016;48.172;8.058;2023-09-18T01:51:57;16.17;;;4.03;;
13891;SDS011;7016;48.172;8.058;2023-09-18T01:54:23;16.08;;;4.25;;
13891;SDS011;7016;48.172;8.058;2023-09-18T01:56:50;23.85;;;4.85;;
13891;SDS011;7016;48.172;8.058;2023-09-18T01:59:17;23.23;;;4.43;;
13891;SDS011;7016;48.172;8.058;2023-09-18T02:01:43;22.33;;;4.43;;
13891;SDS011;7016;48.172;8.058;2023-09-18T02:04:09;14.57;;;3.90;;
13891;SDS011;7016;48.172;8.058;2023-09-18T02:06:35;17.77;;;4.13;;
13891;SDS011;7016;48.172;8.058;2023-09-18T02:09:01;17.27;;;4.13;;
13891;SDS011;7016;48.172;8.058;2023-09-18T02:11:27;19.33;;;4.80;;
13891;SDS011;7016;48.172;8.058;2023-09-18T02:13:52;16.67;;;4.78;;
13891;SDS011;7016;48.172;8.058;2023-09-18T02:16:18;19.38;;;4.63;;
13891;SDS011;7016;48.172;8.058;2023-09-18T02:18:48;14.93;;;4.22;;
13891;SDS011;7016;48.172;8.058;2023-09-18T02:21:20;20.67;;;4.20;;
13891;SDS011;7016;48.172;8.058;2023-09-18T02:23:49;19.27;;;5.25;;
13891;SDS011;7016;48.172;8.058;2023-09-18T02:26:16;17.83;;;4.35;;
13891;SDS011;7016;48.172;8.058;2023-09-18T02:28:45;17.25;;;4.18;;
13891;SDS011;7016;48.172;8.058;2023-09-18T02:31:11;21.58;;;4.70;;
13891;SDS011;7016;48.172;8.058;2023-09-18T02:33:40;22.85;;;6.63;;
13891;SDS011;7016;48.172;8.058;2023-09-18T02:36:06;22.45;;;5.22;;
13891;SDS011;7016;48.172;8.058;2023-09-18T02:38:32;23.05;;;5.90;;
13891;SDS011;7016;48.172;8.058;2023-09-18T02:40:58;19.42;;;5.70;;
13891;SDS011;7016;48.172;8.058;2023-09-18T02:43:24;25.90;;;5.55;;
13891;SDS011;7016;48.172;8.058;2023-09-18T02:45:51;24.48;;;5.18;;
13891;SDS011;7016;48.172;8.058;2023-09-18T02:48:17;15.55;;;4.75;;
13891;SDS011;7016;48.172;8.058;2023-09-18T02:50:43;23.30;;;5.10;;
13891;SDS011;7016;48.172;8.058;2023-09-18T02:53:19;20.58;;;4.78;;
13891;SDS011;7016;48.172;8.058;2023-09-18T02:55:50;21.98;;;4.93;;
13891;SDS011;7016;48.172;8.058;2023-09-18T02:58:17;16.35;;;5.20;;
13891;SDS011;7016;48.172;8.058;2023-09-18T03:00:45;17.77;;;4.55;;
13891;SDS011;7016;48.172;8.058;2023-09-18T03:03:11;15.73;;;4.25;;
13891;SDS011;7016;48.172;8.058;2023-09-18T03:05:38;21.98;;;5.35;;
13891;SDS011;7016;48.172;8.058;2023-09-18T03:08:05;25.42;;;5.78;;
13891;SDS011;7016;48.172;8.058;2023-09-18T03:10:34;22.30;;;5.85;;
13891;SDS011;7016;48.172;8.058;2023-09-18T03:13:04;15.27;;;4.65;;
13891;SDS011;7016;48.172;8.058;2023-09-18T03:15:30;16.77;;;4.68;;
13891;SDS011;7016;48.172;8.058;2023-09-18T03:17:59;19.65;;;5.20;;
13891;SDS011;7016;48.172;8.058;2023-09-18T03:20:26;21.77;;;4.78;;
13891;SDS011;7016;48.172;8.058;2023-09-18T03:22:54;18.90;;;4.80;;
13891;SDS011;7016;48.172;8.058;2023-09-18T03:25:23;16.83;;;5.35;;
13891;SDS011;7016;48.172;8.058;2023-09-18T03:27:53;21.10;;;5.35;;
13891;SDS011;7016;48.172;8.058;2023-09-18T03:30:21;22.50;;;5.40;;
13891;SDS011;7016;48.172;8.058;2023-09-18T03:32:48;20.75;;;6.00;;
13891;SDS011;7016;48.172;8.058;2023-09-18T03:35:18;22.65;;;4.88;;
13891;SDS011;7016;48.172;8.058;2023-09-18T03:37:44;16.67;;;5.40;;
13891;SDS011;7016;48.172;8.058;2023-09-18T03:40:14;21.35;;;5.80;;
13891;SDS011;7016;48.172;8.058;2023-09-18T03:42:40;21.80;;;5.57;;
13891;SDS011;7016;48.172;8.058;2023-09-18T03:45:06;21.38;;;5.00;;
13891;SDS011;7016;48.172;8.058;2023-09-18T03:47:36;21.00;;;5.25;;
13891;SDS011;7016;48.172;8.058;2023-09-18T03:50:04;15.88;;;4.65;;
13891;SDS011;7016;48.172;8.058;2023-09-18T03:52:30;14.85;;;4.60;;
13891;SDS011;7016;48.172;8.058;2023-09-18T03:54:56;17.00;;;4.97;;
13891;SDS011;7016;48.172;8.058;2023-09-18T03:57:22;17.20;;;4.68;;
13891;SDS011;7016;48.172;8.058;2023-09-18T03:59:48;27.05;;;6.80;;
13891;SDS011;7016;48.172;8.058;2023-09-18T04:02:13;22.35;;;5.90;;
13891;SDS011;7016;48.172;8.058;2023-09-18T04:04:39;21.15;;;5.85;;
13891;SDS011;7016;48.172;8.058;2023-09-18T04:07:05;16.65;;;5.25;;
13891;SDS011;7016;48.172;8.058;2023-09-18T04:09:31;18.17;;;5.25;;
13891;SDS011;7016;48.172;8.058;2023-09-18T04:11:57;19.70;;;6.05;;
13891;SDS011;7016;48.172;8.058;2023-09-18T04:14:23;21.60;;;6.90;;
13891;SDS011;7016;48.172;8.058;2023-09-18T04:16:49;20.00;;;5.65;;
13891;SDS011;7016;48.172;8.058;2023-09-18T04:19:15;15.13;;;5.22;;
13891;SDS011;7016;48.172;8.058;2023-09-18T04:21:41;19.17;;;5.53;;
13891;SDS011;7016;48.172;8.058;2023-09-18T04:24:06;18.13;;;5.78;;
13891;SDS011;7016;48.172;8.058;2023-09-18T04:26:32;23.25;;;6.55;;
13891;SDS011;7016;48.172;8.058;2023-09-18T04:28:59;19.30;;;5.90;;
13891;SDS011;7016;48.172;8.058;2023-09-18T04:31:25;16.13;;;5.10;;
13891;SDS011;7016;48.172;8.058;2023-09-18T04:33:52;15.43;;;5.60;;
13891;SDS011;7016;48.172;8.058;2023-09-18T04:36:18;13.10;;;3.90;;
13891;SDS011;7016;48.172;8.058;2023-09-18T04:38:44;16.00;;;4.47;;
13891;SDS011;7016;48.172;8.058;2023-09-18T04:41:10;15.95;;;4.40;;
13891;SDS011;7016;48.172;8.058;2023-09-18T04:43:36;12.88;;;4.35;;
13891;SDS011;7016;48.172;8.058;2023-09-18T04:46:06;16.48;;;4.15;;
13891;SDS011;7016;48.172;8.058;2023-09-18T04:48:32;12.05;;;3.63;;
13891;SDS011;7016;48.172;8.058;2023-09-18T04:50:58;16.10;;;4.00;;
13891;SDS011;7016;48.172;8.058;2023-09-18T04:53:24;12.40;;;4.15;;
13891;SDS011;7016;48.172;8.058;2023-09-18T04:55:52;14.82;;;4.30;;
13891;SDS011;7016;48.172;8.058;2023-09-18T04:58:18;16.92;;;4.55;;
13891;SDS011;7016;48.172;8.058;2023-09-18T05:00:44;14.88;;;4.45;;
13891;SDS011;7016;48.172;8.058;2023-09-18T05:03:10;15.55;;;5.15;;
13891;SDS011;7016;48.172;8.058;2023-09-18T05:05:36;16.55;;;4.72;;
13891;SDS011;7016;48.172;8.058;2023-09-18T05:08:02;14.82;;;4.88;;
13891;SDS011;7016;48.172;8.058;2023-09-18T05:10:32;13.50;;;4.72;;
13891;SDS011;7016;48.172;8.058;2023-09-18T05:12:59;10.27;;;3.83;;
13891;SDS011;7016;48.172;8.058;2023-09-18T05:15:25;12.35;;;4.10;;
13891;SDS011;7016;48.172;8.058;2023-09-18T05:18:00;16.77;;;5.10;;
13891;SDS011;7016;48.172;8.058;2023-09-18T05:20:27;16.92;;;6.45;;
13891;SDS011;7016;48.172;8.058;2023-09-18T05:22:54;15.00;;;5.25;;
13891;SDS011;7016;48.172;8.058;2023-09-18T05:25:21;20.85;;;4.90;;
13891;SDS011;7016;48.172;8.058;2023-09-18T05:27:48;18.23;;;5.85;;
13891;SDS011;7016;48.172;8.058;2023-09-18T05:30:20;13.50;;;5.60;;
13891;SDS011;7016;48.172;8.058;2023-09-18T05:32:52;13.80;;;5.18;;
13891;SDS011;7016;48.172;8.058;2023-09-18T05:35:21;13.30;;;4.60;;
13891;SDS011;7016;48.172;8.058;2023-09-18T05:37:48;14.75;;;4.30;;
13891;SDS011;7016;48.172;8.058;2023-09-18T05:40:19;13.68;;;4.57;;
13891;SDS011;7016;48.172;8.058;2023-09-18T05:42:45;13.07;;;5.20;;
13891;SDS011;7016;48.172;8.058;2023-09-18T05:45:11;13.82;;;4.63;;
13891;SDS011;7016;48.172;8.058;2023-09-18T05:47:38;18.30;;;4.78;;
13891;SDS011;7016;48.172;8.058;2023-09-18T05:50:05;18.17;;;4.85;;
13891;SDS011;7016;48.172;8.058;2023-09-18T05:52:34;16.50;;;4.75;;
13891;SDS011;7016;48.172;8.058;2023-09-18T05:55:00;13.43;;;5.28;;
13891;SDS011;7016;48.172;8.058;2023-09-18T05:57:29;13.75;;;4.50;;
13891;SDS011;7016;48.172;8.058;2023-09-18T05:59:55;17.75;;;4.70;;
13891;SDS011;7016;48.172;8.058;2023-09-18T06:02:21;17.40;;;4.55;;
13891;SDS011;7016;48.172;8.058;2023-09-18T06:04:47;17.73;;;4.90;;
13891;SDS011;7016;48.172;8.058;2023-09-18T06:07:13;14.48;;;4.80;;
13891;SDS011;7016;48.172;8.058;2023-09-18T06:09:39;15.07;;;4.70;;
13891;SDS011;7016;48.172;8.058;2023-09-18T06:12:06;13.85;;;4.28;;
13891;SDS011;7016;48.172;8.058;2023-09-18T06:14:32;16.88;;;4.57;;
13891;SDS011;7016;48.172;8.058;2023-09-18T06:17:00;13.02;;;3.97;;
13891;SDS011;7016;48.172;8.058;2023-09-18T06:19:26;11.10;;;3.70;;
13891;SDS011;7016;48.172;8.058;2023-09-18T06:21:52;12.27;;;3.63;;
13891;SDS011;7016;48.172;8.058;2023-09-18T06:24:17;12.30;;;4.28;;
13891;SDS011;7016;48.172;8.058;2023-09-18T06:26:43;14.75;;;4.10;;
13891;SDS011;7016;48.172;8.058;2023-09-18T06:29:08;14.02;;;4.20;;
13891;SDS011;7016;48.172;8.058;2023-09-18T06:31:37;8.93;;;3.90;;
13891;SDS011;7016;48.172;8.058;2023-09-18T06:34:03;14.95;;;4.20;;
13891;SDS011;7016;48.172;8.058;2023-09-18T06:36:29;11.88;;;3.58;;
13891;SDS011;7016;48.172;8.058;2023-09-18T06:38:55;16.67;;;4.53;;
13891;SDS011;7016;48.172;8.058;2023-09-18T06:41:20;15.00;;;4.30;;
13891;SDS011;7016;48.172;8.058;2023-09-18T06:43:46;13.23;;;4.38;;
13891;SDS011;7016;48.172;8.058;2023-09-18T06:46:12;8.57;;;3.00;;
13891;SDS011;7016;48.172;8.058;2023-09-18T06:48:37;11.48;;;3.08;;
13891;SDS011;7016;48.172;8.058;2023-09-18T06:51:03;7.35;;;2.42;;
13891;SDS011;7016;48.172;8.058;2023-09-18T06:53:29;8.50;;;2.70;;
13891;SDS011;7016;48.172;8.058;2023-09-18T06:55:54;12.45;;;2.50;;
13891;SDS011;7016;48.172;8.058;2023-09-18T06:58:20;9.82;;;2.58;;
13891;SDS011;7016;48.172;8.058;2023-09-18T07:00:46;9.57;;;2.60;;
13891;SDS011;7016;48.172;8.058;2023-09-18T07:03:12;9.02;;;2.55;;
13891;SDS011;7016;48.172;8.058;2023-09-18T07:05:39;7.03;;;2.50;;
13891;SDS011;7016;48.172;8.058;2023-09-18T07:08:05;7.40;;;2.40;;
13891;SDS011;7016;48.172;8.058;2023-09-18T07:10:35;6.90;;;2.42;;
13891;SDS011;7016;48.172;8.058;2023-09-18T07:13:00;7.70;;;2.70;;
13891;SDS011;7016;48.172;8.058;2023-09-18T07:15:26;14.05;;;3.35;;
13891;SDS011;7016;48.172;8.058;2023-09-18T07:17:51;12.05;;;3.05;;
13891;SDS011;7016;48.172;8.058;2023-09-18T07:20:17;14.27;;;3.83;;
13891;SDS011;7016;48.172;8.058;2023-09-18T07:22:47;6.63;;;2.67;;
13891;SDS011;7016;48.172;8.058;2023-09-18T07:25:12;9.90;;;4.38;;
13891;SDS011;7016;48.172;8.058;2023-09-18T07:27:38;13.68;;;4.55;;
13891;SDS011;7016;48.172;8.058;2023-09-18T07:30:09;12.95;;;5.25;;
13891;SDS011;7016;48.172;8.058;2023-09-18T07:32:41;14.23;;;4.90;;
13891;SDS011;7016;48.172;8.058;2023-09-18T07:35:08;12.02;;;4.07;;
13891;SDS011;7016;48.172;8.058;2023-09-18T07:37:34;10.18;;;3.70;;
13891;SDS011;7016;48.172;8.058;2023-09-18T07:40:01;9.02;;;3.03;;
13891;SDS011;7016;48.172;8.058;2023-09-18T07:42:28;9.45;;;3.17;;
13891;SDS011;7016;48.172;8.058;2023-09-18T07:44:53;13.07;;;4.53;;
13891;SDS011;7016;48.172;8.058;2023-09-18T07:47:19;10.75;;;4.15;;
13891;SDS011;7016;48.172;8.058;2023-09-18T07:49:45;16.23;;;4.50;;
13891;SDS011;7016;48.172;8.058;2023-09-18T07:52:11;9.75;;;3.60;;
13891;SDS011;7016;48.172;8.058;2023-09-18T07:54:37;8.98;;;3.30;;
13891;SDS011;7016;48.172;8.058;2023-09-18T07:57:03;7.38;;;2.80;;
13891;SDS011;7016;48.172;8.058;2023-09-18T07:59:28;9.88;;;3.72;;
13891;SDS011;7016;48.172;8.058;2023-09-18T08:01:55;9.75;;;4.28;;
13891;SDS011;7016;48.172;8.058;2023-09-18T08:04:21;11.20;;;3.85;;
13891;SDS011;7016;48.172;8.058;2023-09-18T08:06:46;12.20;;;4.35;;
13891;SDS011;7016;48.172;8.058;2023-09-18T08:09:12;14.20;;;6.50;;
13891;SDS011;7016;48.172;8.058;2023-09-18T08:11:43;19.15;;;5.40;;
13891;SDS011;7016;48.172;8.058;2023-09-18T08:14:09;16.35;;;7.30;;
13891;SDS011;7016;48.172;8.058;2023-09-18T08:16:37;13.43;;;6.38;;
13891;SDS011;7016;48.172;8.058;2023-09-18T08:19:03;18.17;;;7.72;;
13891;SDS011;7016;48.172;8.058;2023-09-18T08:21:29;10.00;;;4.18;;
13891;SDS011;7016;48.172;8.058;2023-09-18T08:23:55;10.57;;;4.03;;
13891;SDS011;7016;48.172;8.058;2023-09-18T08:26:21;6.80;;;3.35;;
13891;SDS011;7016;48.172;8.058;2023-09-18T08:28:47;14.20;;;5.15;;
13891;SDS011;7016;48.172;8.058;2023-09-18T08:31:13;7.85;;;3.00;;
13891;SDS011;7016;48.172;8.058;2023-09-18T08:33:41;9.70;;;3.08;;
13891;SDS011;7016;48.172;8.058;2023-09-18T08:36:08;4.55;;;2.20;;
13891;SDS011;7016;48.172;8.058;2023-09-18T08:38:34;8.25;;;2.45;;
13891;SDS011;7016;48.172;8.058;2023-09-18T08:41:00;4.35;;;2.00;;
13891;SDS011;7016;48.172;8.058;2023-09-18T08:43:26;6.38;;;2.20;;
13891;SDS011;7016;48.172;8.058;2023-09-18T08:45:56;12.13;;;6.28;;
13891;SDS011;7016;48.172;8.058;2023-09-18T08:48:27;9.75;;;1.90;;
13891;SDS011;7016;48.172;8.058;2023-09-18T08:51:03;6.05;;;1.80;;
13891;SDS011;7016;48.172;8.058;2023-09-18T08:53:33;4.38;;;1.50;;
13891;SDS011;7016;48.172;8.058;2023-09-18T08:56:01;5.15;;;2.20;;
13891;SDS011;7016;48.172;8.058;2023-09-18T08:58:32;7.13;;;1.90;;
13891;SDS011;7016;48.172;8.058;2023-09-18T09:01:01;5.95;;;2.08;;
13891;SDS011;7016;48.172;8.058;2023-09-18T09:03:29;3.90;;;1.50;;
13891;SDS011;7016;48.172;8.058;2023-09-18T09:05:55;5.10;;;1.55;;
13891;SDS011;7016;48.172;8.058;2023-09-18T09:08:21;6.32;;;1.40;;
13891;SDS011;7016;48.172;8.058;2023-09-18T09:10:48;6.63;;;1.83;;
13891;SDS011;7016;48.172;8.058;2023-09-18T09:13:14;6.10;;;1.95;;
13891;SDS011;7016;48.172;8.058;2023-09-18T09:15:44;10.07;;;2.05;;
13891;SDS011;7016;48.172;8.058;2023-09-18T09:18:11;9.93;;;1.85;;
13891;SDS011;7016;48.172;8.058;2023-09-18T09:20:39;6.88;;;1.75;;
13891;SDS011;7016;48.172;8.058;2023-09-18T09:23:07;6.68;;;1.80;;
13891;SDS011;7016;48.172;8.058;2023-09-18T09:25:35;4.85;;;1.63;;
13891;SDS011;7016;48.172;8.058;2023-09-18T09:28:05;3.72;;;1.63;;
13891;SDS011;7016;48.172;8.058;2023-09-18T09:30:34;3.45;;;1.30;;
13891;SDS011;7016;48.172;8.058;2023-09-18T09:33:03;4.70;;;1.60;;
13891;SDS011;7016;48.172;8.058;2023-09-18T09:35:33;13.00;;;3.88;;
13891;SDS011;7016;48.172;8.058;2023-09-18T09:38:01;7.40;;;2.60;;
13891;SDS011;7016;48.172;8.058;2023-09-18T09:40:33;7.93;;;1.90;;
13891;SDS011;7016;48.172;8.058;2023-09-18T09:43:00;10.95;;;3.10;;
13891;SDS011;7016;48.172;8.058;2023-09-18T09:45:28;10.43;;;2.35;;
13891;SDS011;7016;48.172;8.058;2023-09-18T09:48:03;8.05;;;2.97;;
13891;SDS011;7016;48.172;8.058;2023-09-18T09:50:57;7.72;;;2.30;;
13891;SDS011;7016;48.172;8.058;2023-09-18T09:53:43;5.65;;;2.38;;
13891;SDS011;7016;48.172;8.058;2023-09-18T09:56:12;6.20;;;2.25;;
13891;SDS011;7016;48.172;8.058;2023-09-18T09:58:38;6.72;;;1.70;;
13891;SDS011;7016;48.172;8.058;2023-09-18T10:01:09;3.90;;;1.33;;
13891;SDS011;7016;48.172;8.058;2023-09-18T10:03:42;4.20;;;1.67;;
13891;SDS011;7016;48.172;8.058;2023-09-18T10:06:09;4.55;;;1.73;;
13891;SDS011;7016;48.172;8.058;2023-09-18T10:08:38;4.05;;;1.50;;
13891;SDS011;7016;48.172;8.058;2023-09-18T10:11:08;4.38;;;2.10;;
13891;SDS011;7016;48.172;8.058;2023-09-18T10:16:11;5.15;;;2.58;;
13891;SDS011;7016;48.172;8.058;2023-09-18T10:24:31;5.85;;;1.92;;
13891;SDS011;7016;48.172;8.058;2023-09-18T10:27:02;4.35;;;1.55;;
13891;SDS011;7016;48.172;8.058;2023-09-18T10:29:30;4.78;;;1.90;;
13891;SDS011;7016;48.172;8.058;2023-09-18T10:31:57;5.13;;;1.63;;
13891;SDS011;7016;48.172;8.058;2023-09-18T10:34:24;4.85;;;2.08;;
13891;SDS011;7016;48.172;8.058;2023-09-18T10:36:51;13.45;;;4.13;;
13891;SDS011;7016;48.172;8.058;2023-09-18T10:39:18;8.82;;;2.47;;
13891;SDS011;7016;48.172;8.058;2023-09-18T10:41:51;2.88;;;1.35;;
13891;SDS011;7016;48.172;8.058;2023-09-18T10:44:18;5.18;;;3.28;;
13891;SDS011;7016;48.172;8.058;2023-09-18T10:46:50;8.05;;;2.70;;
13891;SDS011;7016;48.172;8.058;2023-09-18T10:49:18;4.35;;;1.63;;
13891;SDS011;7016;48.172;8.058;2023-09-18T10:51:45;4.43;;;2.35;;
13891;SDS011;7016;48.172;8.058;2023-09-18T10:54:15;5.60;;;1.98;;
13891;SDS011;7016;48.172;8.058;2023-09-18T10:56:44;5.05;;;1.73;;
13891;SDS011;7016;48.172;8.058;2023-09-18T10:59:10;4.28;;;2.22;;
13891;SDS011;7016;48.172;8.058;2023-09-18T11:01:36;6.85;;;2.55;;
13891;SDS011;7016;48.172;8.058;2023-09-18T11:04:06;5.28;;;1.90;;
13891;SDS011;7016;48.172;8.058;2023-09-18T11:09:19;7.50;;;2.50;;
13891;SDS011;7016;48.172;8.058;2023-09-18T11:11:53;9.20;;;2.28;;
13891;SDS011;7016;48.172;8.058;2023-09-18T11:25:40;7.95;;;2.00;;
13891;SDS011;7016;48.172;8.058;2023-09-18T11:28:13;2.83;;;1.58;;
13891;SDS011;7016;48.172;8.058;2023-09-18T11:30:50;4.55;;;2.00;;
13891;SDS011;7016;48.172;8.058;2023-09-18T11:33:32;6.20;;;1.80;;
13891;SDS011;7016;48.172;8.058;2023-09-18T11:36:01;2.85;;;1.70;;
13891;SDS011;7016;48.172;8.058;2023-09-18T11:38:32;10.18;;;2.22;;
13891;SDS011;7016;48.172;8.058;2023-09-18T11:41:19;4.35;;;1.45;;
13891;SDS011;7016;48.172;8.058;2023-09-18T11:43:52;3.00;;;1.27;;
13891;SDS011;7016;48.172;8.058;2023-09-18T11:46:38;6.93;;;1.27;;
13891;SDS011;7016;48.172;8.058;2023-09-18T11:49:20;4.20;;;1.40;;
13891;SDS011;7016;48.172;8.058;2023-09-18T11:51:52;4.63;;;1.75;;
13891;SDS011;7016;48.172;8.058;2023-09-18T11:54:19;4.60;;;1.70;;
13891;SDS011;7016;48.172;8.058;2023-09-18T11:56:46;2.90;;;1.27;;
13891;SDS011;7016;48.172;8.058;2023-09-18T11:59:12;3.97;;;1.67;;
13891;SDS011;7016;48.172;8.058;2023-09-18T12:01:38;6.75;;;1.20;;
13891;SDS011;7016;48.172;8.058;2023-09-18T12:04:11;3.40;;;1.40;;
13891;SDS011;7016;48.172;8.058;2023-09-18T12:06:40;3.65;;;1.35;;
13891;SDS011;7016;48.172;8.058;2023-09-18T12:09:07;5.57;;;1.40;;
13891;SDS011;7016;48.172;8.058;2023-09-18T12:11:34;2.47;;;1.20;;
13891;SDS011;7016;48.172;8.058;2023-09-18T12:14:00;4.25;;;0.90;;
13891;SDS011;7016;48.172;8.058;2023-09-18T12:16:27;3.00;;;0.93;;
13891;SDS011;7016;48.172;8.058;2023-09-18T12:18:53;4.03;;;1.20;;
13891;SDS011;7016;48.172;8.058;2023-09-18T12:21:19;2.42;;;1.00;;
13891;SDS011;7016;48.172;8.058;2023-09-18T12:23:45;1.75;;;0.90;;
13891;SDS011;7016;48.172;8.058;2023-09-18T12:26:12;3.03;;;1.10;;
13891;SDS011;7016;48.172;8.058;2023-09-18T12:28:39;2.30;;;1.02;;
13891;SDS011;7016;48.172;8.058;2023-09-18T12:31:06;3.90;;;1.20;;
13891;SDS011;7016;48.172;8.058;2023-09-18T12:33:36;3.22;;;1.35;;
13891;SDS011;7016;48.172;8.058;2023-09-18T12:36:03;3.97;;;1.40;;
13891;SDS011;7016;48.172;8.058;2023-09-18T12:38:30;3.72;;;1.30;;
13891;SDS011;7016;48.172;8.058;2023-09-18T12:40:56;5.47;;;1.58;;
13891;SDS011;7016;48.172;8.058;2023-09-18T12:43:31;2.35;;;1.00;;
13891;SDS011;7016;48.172;8.058;2023-09-18T12:46:02;1.88;;;1.00;;
13891;SDS011;7016;48.172;8.058;2023-09-18T12:48:29;1.77;;;0.85;;
13891;SDS011;7016;48.172;8.058;2023-09-18T12:50:55;3.28;;;1.35;;
13891;SDS011;7016;48.172;8.058;2023-09-18T12:53:28;2.65;;;1.00;;
13891;SDS011;7016;48.172;8.058;2023-09-18T12:55:54;5.85;;;1.50;;
13891;SDS011;7016;48.172;8.058;2023-09-18T12:58:29;3.90;;;1.45;;
13891;SDS011;7016;48.172;8.058;2023-09-18T13:00:54;2.70;;;1.00;;
13891;SDS011;7016;48.172;8.058;2023-09-18T13:03:23;4.43;;;1.30;;
13891;SDS011;7016;48.172;8.058;2023-09-18T13:05:49;2.05;;;1.10;;
13891;SDS011;7016;48.172;8.058;2023-09-18T13:08:22;6.70;;;1.33;;
13891;SDS011;7016;48.172;8.058;2023-09-18T13:10:48;3.97;;;1.10;;
13891;SDS011;7016;48.172;8.058;2023-09-18T13:13:18;3.33;;;1.10;;
13891;SDS011;7016;48.172;8.058;2023-09-18T13:15:48;3.67;;;1.10;;
13891;SDS011;7016;48.172;8.058;2023-09-18T13:18:14;3.80;;;1.13;;
13891;SDS011;7016;48.172;8.058;2023-09-18T13:20:41;2.70;;;1.10;;
13891;SDS011;7016;48.172;8.058;2023-09-18T13:23:07;1.80;;;1.00;;
13891;SDS011;7016;48.172;8.058;2023-09-18T13:25:34;4.53;;;1.38;;
13891;SDS011;7016;48.172;8.058;2023-09-18T13:28:06;3.05;;;0.93;;
13891;SDS011;7016;48.172;8.058;2023-09-18T13:30:33;3.65;;;1.13;;
13891;SDS011;7016;48.172;8.058;2023-09-18T13:35:34;1.83;;;0.88;;
13891;SDS011;7016;48.172;8.058;2023-09-18T13:38:02;3.00;;;1.30;;
13891;SDS011;7016;48.172;8.058;2023-09-18T13:40:33;3.28;;;1.10;;
13891;SDS011;7016;48.172;8.058;2023-09-18T13:43:03;2.08;;;1.10;;
13891;SDS011;7016;48.172;8.058;2023-09-18T13:45:33;6.82;;;1.20;;
13891;SDS011;7016;48.172;8.058;2023-09-18T13:48:05;3.97;;;1.20;;
13891;SDS011;7016;48.172;8.058;2023-09-18T13:50:32;1.98;;;1.20;;
13891;SDS011;7016;48.172;8.058;2023-09-18T13:52:58;2.13;;;1.13;;
13891;SDS011;7016;48.172;8.058;2023-09-18T13:55:25;2.25;;;1.25;;
13891;SDS011;7016;48.172;8.058;2023-09-18T13:57:50;1.75;;;1.00;;
13891;SDS011;7016;48.172;8.058;2023-09-18T14:00:16;3.15;;;1.33;;
13891;SDS011;7016;48.172;8.058;2023-09-18T14:02:42;3.47;;;1.15;;
13891;SDS011;7016;48.172;8.058;2023-09-18T14:05:09;3.92;;;1.40;;
13891;SDS011;7016;48.172;8.058;2023-09-18T14:07:36;3.47;;;1.30;;
13891;SDS011;7016;48.172;8.058;2023-09-18T14:10:08;3.88;;;1.20;;
13891;SDS011;7016;48.172;8.058;2023-09-18T14:12:38;3.53;;;1.27;;
13891;SDS011;7016;48.172;8.058;2023-09-18T14:15:05;2.47;;;1.23;;
13891;SDS011;7016;48.172;8.058;2023-09-18T14:17:34;3.08;;;1.05;;
13891;SDS011;7016;48.172;8.058;2023-09-18T14:20:08;2.20;;;1.13;;
13891;SDS011;7016;48.172;8.058;2023-09-18T14:22:35;6.72;;;1.58;;
13891;SDS011;7016;48.172;8.058;2023-09-18T14:25:02;3.33;;;1.55;;
13891;SDS011;7016;48.172;8.058;2023-09-18T14:27:30;3.42;;;1.30;;
13891;SDS011;7016;48.172;8.058;2023-09-18T14:30:00;8.27;;;1.70;;
13891;SDS011;7016;48.172;8.058;2023-09-18T14:32:29;3.33;;;1.60;;
13891;SDS011;7016;48.172;8.058;2023-09-18T14:34:54;6.30;;;2.60;;
13891;SDS011;7016;48.172;8.058;2023-09-18T14:37:20;9.48;;;3.00;;
13891;SDS011;7016;48.172;8.058;2023-09-18T14:39:45;5.40;;;1.90;;
13891;SDS011;7016;48.172;8.058;2023-09-18T14:42:12;5.28;;;1.65;;
13891;SDS011;7016;48.172;8.058;2023-09-18T14:44:37;5.80;;;1.27;;
13891;SDS011;7016;48.172;8.058;2023-09-18T14:47:09;4.22;;;1.40;;
13891;SDS011;7016;48.172;8.058;2023-09-18T14:49:38;3.65;;;1.40;;
13891;SDS011;7016;48.172;8.058;2023-09-18T14:52:04;4.35;;;1.60;;
13891;SDS011;7016;48.172;8.058;2023-09-18T14:54:30;2.28;;;1.25;;
13891;SDS011;7016;48.172;8.058;2023-09-18T14:56:56;4.53;;;1.20;;
13891;SDS011;7016;48.172;8.058;2023-09-18T14:59:22;4.65;;;1.35;;
13891;SDS011;7016;48.172;8.058;2023-09-18T15:01:47;5.80;;;1.40;;
13891;SDS011;7016;48.172;8.058;2023-09-18T15:04:14;5.45;;;1.27;;
13891;SDS011;7016;48.172;8.058;2023-09-18T15:06:40;2.35;;;1.25;;
13891;SDS011;7016;48.172;8.058;2023-09-18T15:09:05;5.80;;;1.30;;
13891;SDS011;7016;48.172;8.058;2023-09-18T15:11:32;5.03;;;1.67;;
13891;SDS011;7016;48.172;8.058;2023-09-18T15:14:00;3.53;;;1.40;;
13891;SDS011;7016;48.172;8.058;2023-09-18T15:16:27;5.95;;;1.50;;
13891;SDS011;7016;48.172;8.058;2023-09-18T15:18:55;4.65;;;1.52;;
13891;SDS011;7016;48.172;8.058;2023-09-18T15:21:21;4.43;;;1.52;;
13891;SDS011;7016;48.172;8.058;2023-09-18T15:23:46;6.57;;;2.28;;